KDNV/DNV METAR and TAF weather

Enter ICAO airport designator
Station Type Date Time Source
KDNV METAR 2021/09/28 03:55 UTC NOAA

KDNV 280355Z AUTO 21006KT 10SM CLR 22/16 A2989 RMK AO2 T02150156


Station Type Date Time Source
KDNV Decoded METAR 2021/09/28 03:55 UTC NOAA

Danville, Vermilion County Airport, IL, United States (KDNV) 40-11-58N 087-35-44W
Sep 27, 2021 - 11:55 PM EDT / 2021.09.28 0355 UTC
Wind: from the SSW (210 degrees) at 7 MPH (6 KT):0
Visibility: 10 mile(s):0
Sky conditions: clear
Temperature: 70.7 F (21.5 C)
Dew Point: 60.1 F (15.6 C)
Relative Humidity: 69%
Pressure (altimeter): 29.89 in. Hg (1012 hPa)
ob: KDNV 280355Z AUTO 21006KT 10SM CLR 22/16 A2989 RMK AO2 T02150156
cycle: 4

Station Type Date Time Source
KDNV TAF UTC NOAA

Error!

Example: see airport list